Time;durP1;ratioP1;P1;durP2;ratioP2;P2;SDS_P1;SDS_P2;PMS_P1;PMS_P2;Temp;Humidity;BMP_temperature;BMP_pressure;BME280_temperature;BME280_humidity;BME280_pressure;Samples;Min_cycle;Max_cycle;Signal;HPM_P1;HPM_P2
2022/08/30 00:02:05;;;;;;;0.40;0.40;;;;;;;11.79;61.26;101459.91;5128071;28;20031;-74
2022/08/30 00:04:31;;;;;;;0.63;0.63;;;;;;;11.83;61.78;101466.00;5127764;28;20020;-75
2022/08/30 00:06:56;;;;;;;0.40;0.40;;;;;;;11.84;62.17;101466.00;5127467;28;20016;-74
2022/08/30 00:09:22;;;;;;;0.35;0.35;;;;;;;11.83;62.61;101468.63;5127406;28;20086;-74
2022/08/30 00:11:48;;;;;;;0.40;0.40;;;;;;;11.82;63.35;101466.88;5127373;28;20474;-74
2022/08/30 00:14:14;;;;;;;0.50;0.50;;;;;;;11.81;63.54;101467.72;5127411;28;20104;-74
2022/08/30 00:16:39;;;;;;;0.40;0.40;;;;;;;11.77;62.97;101472.06;5127649;28;20065;-75
2022/08/30 00:19:05;;;;;;;0.40;0.40;;;;;;;11.71;62.26;101457.28;5127277;28;20031;-74
2022/08/30 00:21:30;;;;;;;0.38;0.38;;;;;;;11.62;62.28;101458.13;5127488;28;20486;-74
2022/08/30 00:23:55;;;;;;;0.40;0.40;;;;;;;11.61;61.82;101474.59;5127189;28;20247;-74
2022/08/30 00:26:21;;;;;;;0.40;0.40;;;;;;;11.49;61.64;101457.22;5129957;28;20023;-75
2022/08/30 00:28:46;;;;;;;0.30;0.30;;;;;;;11.46;61.18;101456.31;5128839;28;20030;-75
2022/08/30 00:31:12;;;;;;;0.30;0.30;;;;;;;11.43;60.83;101466.72;5127903;28;20027;-76
2022/08/30 00:33:39;;;;;;;0.40;0.40;;;;;;;11.37;60.89;101465.81;5127308;28;20022;-75
2022/08/30 00:36:04;;;;;;;0.30;0.30;;;;;;;11.32;60.70;101470.13;5108957;28;20027;-74
2022/08/30 00:38:30;;;;;;;0.30;0.30;;;;;;;11.22;61.24;101452.72;5126828;28;20023;-74
2022/08/30 00:40:55;;;;;;;0.30;0.30;;;;;;;11.24;61.15;101464.00;5126797;28;20043;-74
2022/08/30 00:43:32;;;;;;;0.30;0.30;;;;;;;11.17;62.21;101454.44;5107688;28;20027;-75
2022/08/30 00:45:58;;;;;;;0.43;0.43;;;;;;;11.22;61.31;101460.53;5108203;28;20039;-74
2022/08/30 00:48:23;;;;;;;0.40;0.40;;;;;;;11.24;61.42;101466.63;5126798;28;20019;-74
2022/08/30 00:50:55;;;;;;;0.30;0.30;;;;;;;11.29;61.36;101467.50;5126482;28;20379;-75
2022/08/30 00:53:25;;;;;;;0.40;0.40;;;;;;;11.28;61.76;101468.34;5126515;28;20023;-74
2022/08/30 00:55:52;;;;;;;0.40;0.40;;;;;;;11.33;61.99;101460.59;5126861;28;20020;-74
2022/08/30 00:58:21;;;;;;;0.40;0.40;;;;;;;11.45;61.96;101465.88;5126623;28;20027;-73
2022/08/30 01:00:50;;;;;;;0.30;0.30;;;;;;;11.49;61.74;101464.13;5108101;28;20028;-75
2022/08/30 01:03:15;;;;;;;0.40;0.40;;;;;;;11.60;61.58;101467.66;5126480;28;20050;-74
2022/08/30 01:05:41;;;;;;;0.40;0.40;;;;;;;11.62;61.75;101460.75;5126121;28;20459;-74
2022/08/30 01:08:06;;;;;;;0.30;0.30;;;;;;;11.71;61.95;101464.25;5126134;28;20028;-72
2022/08/30 01:10:33;;;;;;;0.70;0.70;;;;;;;11.82;61.75;101472.09;5126280;28;20111;-75
2022/08/30 01:12:59;;;;;;;0.40;0.40;;;;;;;11.83;62.14;101477.28;5126432;28;20024;-74
2022/08/30 01:15:25;;;;;;;0.40;0.40;;;;;;;11.95;61.42;101476.44;5107748;28;20114;-73
2022/08/30 01:17:50;;;;;;;0.30;0.30;;;;;;;11.95;60.99;101471.25;5126173;28;20083;-74
2022/08/30 01:20:26;;;;;;;0.40;0.40;;;;;;;12.00;60.84;101479.06;5126101;28;20039;-73
2022/08/30 01:22:51;;;;;;;0.40;0.40;;;;;;;12.06;60.55;101480.84;5126267;28;20092;-75
2022/08/30 01:25:29;;;;;;;0.40;0.40;;;;;;;12.08;60.91;101487.81;5107653;28;20463;-74
2022/08/30 01:28:00;;;;;;;0.40;0.40;;;;;;;12.06;60.47;101473.88;5126239;28;20030;-74
2022/08/30 01:30:26;;;;;;;0.40;0.40;;;;;;;12.05;60.65;101481.69;5107866;28;20577;-74
2022/08/30 01:33:01;;;;;;;0.40;0.40;;;;;;;12.09;60.79;101484.31;5126161;28;20031;-74
2022/08/30 01:35:28;;;;;;;0.30;0.30;;;;;;;12.11;60.79;101481.72;5126238;28;20427;-74
2022/08/30 01:37:54;;;;;;;0.40;0.40;;;;;;;12.08;60.71;101476.50;5125938;28;20375;-74
2022/08/30 01:40:21;;;;;;;0.40;0.40;;;;;;;12.15;60.71;101480.88;5125893;28;20087;-74
2022/08/30 01:42:46;;;;;;;0.30;0.30;;;;;;;12.16;61.08;101479.16;5107481;28;20058;-74
2022/08/30 01:45:12;;;;;;;0.40;0.40;;;;;;;12.21;60.82;101487.84;5125703;28;20044;-74
2022/08/30 01:47:39;;;;;;;0.40;0.40;;;;;;;12.19;60.69;101494.78;5125846;28;20332;-73
2022/08/30 01:50:06;;;;;;;0.30;0.30;;;;;;;12.23;60.29;101491.31;5125795;28;20081;-74
2022/08/30 01:52:34;;;;;;;0.40;0.40;;;;;;;12.19;60.39;101479.16;5125812;28;20023;-74
2022/08/30 01:54:59;;;;;;;0.40;0.40;;;;;;;12.20;60.39;101483.50;5129510;28;20060;-74
2022/08/30 01:57:25;;;;;;;0.40;0.40;;;;;;;12.21;60.28;101493.03;5129665;28;20019;-74
2022/08/30 01:59:51;;;;;;;0.38;0.38;;;;;;;12.17;60.19;101492.19;5129992;28;20024;-72
2022/08/30 02:02:21;;;;;;;0.40;0.40;;;;;;;12.19;59.98;101486.97;5130010;28;20023;-72
2022/08/30 02:04:47;;;;;;;0.30;0.30;;;;;;;12.18;60.12;101487.81;5129896;28;20038;-71
2022/08/30 02:07:13;;;;;;;0.40;0.40;;;;;;;12.20;60.20;101480.91;5111392;28;20099;-72
2022/08/30 02:09:39;;;;;;;0.40;0.40;;;;;;;12.22;60.21;101489.59;5129954;28;20027;-72
2022/08/30 02:12:06;;;;;;;0.40;0.40;;;;;;;12.26;60.01;101488.72;5129713;28;20024;-73
2022/08/30 02:14:36;;;;;;;0.40;0.40;;;;;;;12.27;60.12;101486.13;5130002;28;20375;-73
2022/08/30 02:17:07;;;;;;;0.40;0.40;;;;;;;12.25;60.18;101473.97;5111429;28;20184;-73
2022/08/30 02:19:32;;;;;;;0.40;0.40;;;;;;;12.28;60.05;101468.78;5129653;28;20023;-71
2022/08/30 02:21:58;;;;;;;0.40;0.40;;;;;;;12.38;59.78;101485.28;5129562;28;20049;-73
2022/08/30 02:24:24;;;;;;;0.40;0.40;;;;;;;12.39;59.74;101485.28;5111186;28;20110;-72
2022/08/30 02:26:51;;;;;;;0.40;0.40;;;;;;;12.39;59.92;101477.47;5129461;28;20052;-72
2022/08/30 02:29:18;;;;;;;0.40;0.40;;;;;;;12.41;59.73;101476.59;5110835;28;20030;-71
2022/08/30 02:31:43;;;;;;;0.40;0.40;;;;;;;12.45;59.74;101479.19;5111059;28;20089;-72
2022/08/30 02:34:09;;;;;;;0.30;0.30;;;;;;;12.45;59.73;101481.81;5111066;28;20051;-72
2022/08/30 02:36:35;;;;;;;0.40;0.40;;;;;;;12.44;59.82;101481.81;5129463;28;20028;-72
2022/08/30 02:39:01;;;;;;;0.32;0.32;;;;;;;12.46;59.66;101477.47;5110805;28;20019;-71
2022/08/30 02:41:26;;;;;;;0.35;0.35;;;;;;;12.45;59.63;101478.31;5129084;28;20023;-72
2022/08/30 02:43:57;;;;;;;0.40;0.40;;;;;;;12.44;59.68;101474.88;5129135;28;20075;-72
2022/08/30 02:46:22;;;;;;;0.35;0.35;;;;;;;12.43;59.62;101467.06;5129003;28;20043;-73
2022/08/30 02:48:48;;;;;;;0.40;0.40;;;;;;;12.45;59.54;101476.59;5110791;28;20053;-71
2022/08/30 02:51:13;;;;;;;0.40;0.40;;;;;;;12.45;59.43;101471.38;5129003;28;20394;-73
2022/08/30 02:53:40;;;;;;;0.40;0.40;;;;;;;12.46;59.50;101467.06;5110459;28;20027;-74
2022/08/30 02:56:10;;;;;;;0.40;0.40;;;;;;;12.40;59.38;101475.72;5129028;28;20201;-72
2022/08/30 02:58:35;;;;;;;0.30;0.30;;;;;;;12.41;59.59;101471.38;5128997;28;20489;-73
2022/08/30 03:01:01;;;;;;;0.30;0.30;;;;;;;12.41;59.52;101474.00;5128783;28;20091;-73
2022/08/30 03:03:27;;;;;;;0.30;0.30;;;;;;;12.40;59.57;101478.31;5128842;28;20038;-73
2022/08/30 03:05:52;;;;;;;0.40;0.40;;;;;;;12.37;59.45;101476.59;5128069;28;20043;-73
2022/08/30 03:08:17;;;;;;;0.40;0.40;;;;;;;12.35;59.57;101470.50;5110305;28;20028;-72
2022/08/30 03:10:46;;;;;;;0.40;0.40;;;;;;;12.36;59.27;101471.38;5128606;28;20031;-73
2022/08/30 03:13:11;;;;;;;0.40;0.40;;;;;;;12.33;59.43;101476.59;5128659;28;20494;-73
2022/08/30 03:15:38;;;;;;;0.30;0.30;;;;;;;12.29;59.31;101470.50;5110343;28;20125;-73
2022/08/30 03:18:04;;;;;;;0.40;0.40;;;;;;;12.27;59.37;101482.63;5128654;28;20054;-72
2022/08/30 03:20:30;;;;;;;0.30;0.30;;;;;;;12.17;59.41;101471.34;5128660;28;20019;-73
2022/08/30 03:22:55;;;;;;;0.50;0.50;;;;;;;12.16;59.97;101479.16;5128415;28;20076;-74
2022/08/30 03:25:21;;;;;;;0.40;0.40;;;;;;;12.11;59.52;101472.19;5128455;28;20032;-72
2022/08/30 03:27:49;;;;;;;0.32;0.32;;;;;;;12.11;59.62;101485.22;5127136;28;20034;-72
2022/08/30 03:30:15;;;;;;;0.40;0.40;;;;;;;12.01;59.45;101476.47;5108715;28;20020;-73
2022/08/30 03:32:42;;;;;;;0.40;0.40;;;;;;;11.96;59.43;101472.13;5127983;28;20389;-72
2022/08/30 03:35:08;;;;;;;0.40;0.40;;;;;;;11.88;59.64;101479.91;5128090;28;20094;-73
2022/08/30 03:37:34;;;;;;;0.40;0.40;;;;;;;11.80;59.73;101482.50;5127949;28;20072;-73
2022/08/30 03:40:01;;;;;;;0.38;0.38;;;;;;;11.67;59.57;101476.38;5127913;28;20039;-72
2022/08/30 03:42:27;;;;;;;0.40;0.40;;;;;;;11.58;60.04;101487.56;5128306;28;20023;-73
2022/08/30 03:44:52;;;;;;;0.43;0.43;;;;;;;11.40;60.58;101483.16;5127842;28;20047;-72
2022/08/30 03:47:18;;;;;;;0.40;0.40;;;;;;;11.30;60.34;101479.66;5128250;28;20027;-73
2022/08/30 03:49:45;;;;;;;0.40;0.40;;;;;;;11.29;60.49;101483.13;5127925;28;20019;-72
2022/08/30 03:52:10;;;;;;;0.40;0.40;;;;;;;11.26;60.44;101485.69;5127765;28;20059;-71
2022/08/30 03:54:35;;;;;;;0.40;0.40;;;;;;;11.18;60.71;101497.78;5109693;28;20016;-73
2022/08/30 03:57:01;;;;;;;0.40;0.40;;;;;;;11.12;60.64;101493.38;5127636;28;20031;-72
2022/08/30 03:59:26;;;;;;;0.40;0.40;;;;;;;11.03;60.50;101491.59;5109349;28;20038;-71
2022/08/30 04:01:51;;;;;;;0.40;0.40;;;;;;;11.00;60.62;101504.56;5127678;28;20213;-72
2022/08/30 04:04:17;;;;;;;0.40;0.40;;;;;;;10.95;60.50;101509.72;5127497;28;20028;-72
2022/08/30 04:06:42;;;;;;;0.40;0.40;;;;;;;10.89;60.46;101515.72;5127419;28;20112;-74
2022/08/30 04:09:08;;;;;;;0.40;0.40;;;;;;;10.78;60.37;101504.41;5127431;28;20027;-73
2022/08/30 04:11:33;;;;;;;0.40;0.40;;;;;;;10.76;60.59;101507.00;5127394;28;20015;-72
2022/08/30 04:13:59;;;;;;;0.30;0.30;;;;;;;10.72;60.62;101512.16;5127437;28;20023;-75
2022/08/30 04:16:25;;;;;;;0.40;0.40;;;;;;;10.63;60.60;101507.72;5108748;28;20023;-74
2022/08/30 04:18:51;;;;;;;0.40;0.40;;;;;;;10.66;60.83;101513.84;5126715;28;20027;-73
2022/08/30 04:21:18;;;;;;;0.40;0.40;;;;;;;10.70;60.82;101513.84;5127246;28;20039;-73
2022/08/30 04:23:44;;;;;;;0.40;0.40;;;;;;;10.74;61.00;101519.09;5126823;28;20046;-74
2022/08/30 04:26:10;;;;;;;0.40;0.40;;;;;;;10.77;61.30;101518.22;5127119;28;20024;-71
2022/08/30 04:28:35;;;;;;;0.40;0.40;;;;;;;10.70;61.34;101498.28;5127390;28;20027;-75
2022/08/30 04:31:10;;;;;;;0.40;0.40;;;;;;;10.77;61.38;101513.03;5126909;28;20051;-74
2022/08/30 04:33:36;;;;;;;0.40;0.40;;;;;;;10.76;61.26;101516.50;5126971;28;20463;-75
2022/08/30 04:36:03;;;;;;;0.40;0.40;;;;;;;10.73;61.76;101512.16;5126778;28;20088;-74
2022/08/30 04:38:29;;;;;;;0.40;0.40;;;;;;;10.73;62.05;101516.47;5126405;28;20446;-75
2022/08/30 04:40:55;;;;;;;0.40;0.40;;;;;;;10.77;61.96;101513.03;5126510;28;20053;-74
2022/08/30 04:43:20;;;;;;;0.40;0.40;;;;;;;10.83;61.96;101531.28;5126971;28;20034;-75
2022/08/30 04:45:50;;;;;;;0.40;0.40;;;;;;;10.84;62.18;101526.97;5108271;28;20564;-74
2022/08/30 04:48:16;;;;;;;0.40;0.40;;;;;;;10.86;62.01;101533.03;5126792;28;20034;-74
2022/08/30 04:50:42;;;;;;;0.40;0.40;;;;;;;10.87;62.09;101533.06;5126227;28;20024;-75
2022/08/30 04:53:07;;;;;;;0.40;0.40;;;;;;;10.96;62.57;101536.59;5108587;28;20024;-75
2022/08/30 04:55:33;;;;;;;0.40;0.40;;;;;;;11.30;63.16;101542.03;5126853;28;20073;-73
2022/08/30 04:57:59;;;;;;;0.30;0.30;;;;;;;11.79;63.38;101535.38;5108358;28;20038;-75
2022/08/30 05:00:27;;;;;;;0.30;0.30;;;;;;;11.96;62.71;101535.47;5126587;28;20024;-74
2022/08/30 05:02:53;;;;;;;0.40;0.40;;;;;;;11.88;62.34;101543.25;5126938;28;20060;-78
2022/08/30 05:08:03;;;;;;;0.50;0.50;;;;;;;11.75;62.16;101552.72;5126759;28;20101;-74
2022/08/30 05:10:28;;;;;;;0.40;0.40;;;;;;;11.61;62.18;101557.81;5126770;28;20108;-75
2022/08/30 05:12:54;;;;;;;0.40;0.40;;;;;;;11.49;61.98;101552.56;5126802;28;20103;-75
2022/08/30 05:15:22;;;;;;;7.43;1.88;;;;;;;11.49;61.90;101560.34;5108066;28;20011;-75
2022/08/30 05:17:48;;;;;;;0.40;0.40;;;;;;;11.45;62.20;101561.19;5127272;28;20030;-77
2022/08/30 05:20:14;;;;;;;0.40;0.40;;;;;;;11.37;62.18;101555.97;5126431;28;20028;-74
2022/08/30 05:22:48;;;;;;;0.40;0.40;;;;;;;11.43;62.03;101566.41;5126112;28;20053;-75
2022/08/30 05:25:19;;;;;;;0.40;0.40;;;;;;;11.44;61.92;101562.06;5126256;28;20051;-74
2022/08/30 05:27:44;;;;;;;0.40;0.40;;;;;;;11.45;62.17;101569.00;5107827;28;20026;-73
2022/08/30 05:30:11;;;;;;;0.40;0.40;;;;;;;11.48;61.90;101580.31;5125638;28;20027;-73
2022/08/30 05:32:36;;;;;;;0.40;0.40;;;;;;;11.46;62.38;101571.63;5126135;28;20031;-74
2022/08/30 05:35:05;;;;;;;0.40;0.40;;;;;;;11.55;62.51;101577.75;5126206;28;20062;-75
2022/08/30 05:37:30;;;;;;;0.40;0.40;;;;;;;11.62;62.74;101579.50;5125909;28;20023;-75
2022/08/30 05:39:56;;;;;;;0.40;0.40;;;;;;;11.63;63.03;101574.31;5125744;28;20031;-77
2022/08/30 05:42:21;;;;;;;0.40;0.40;;;;;;;11.84;62.96;101574.41;5107587;28;20077;-71
2022/08/30 05:45:10;;;;;;;0.40;0.40;;;;;;;12.12;63.18;101580.66;5126282;28;20040;-73
2022/08/30 05:47:36;;;;;;;0.40;0.40;;;;;;;12.82;64.58;101579.09;5125469;28;20039;-69
2022/08/30 05:50:01;;;;;;;0.40;0.40;;;;;;;13.94;65.43;101570.28;5126177;28;20065;-69
2022/08/30 05:52:26;;;;;;;0.30;0.30;;;;;;;15.31;64.21;101577.28;5125877;28;20083;-69
2022/08/30 05:54:58;;;;;;;0.30;0.30;;;;;;;16.51;63.48;101580.25;5126047;28;20456;-68
2022/08/30 05:57:24;;;;;;;0.38;0.38;;;;;;;17.30;61.54;101586.00;5126068;28;20047;-67
2022/08/30 05:59:50;;;;;;;0.30;0.30;;;;;;;17.95;58.80;101578.66;5106982;28;20024;-69
2022/08/30 06:02:15;;;;;;;0.30;0.30;;;;;;;18.55;58.88;101585.28;5126065;28;20043;-68
2022/08/30 06:04:41;;;;;;;0.30;0.30;;;;;;;19.31;58.48;101586.06;5107648;28;20035;-68
2022/08/30 06:07:06;;;;;;;0.20;0.20;;;;;;;19.98;57.86;101580.75;5125830;28;20353;-68
2022/08/30 06:09:31;;;;;;;0.30;0.30;;;;;;;20.43;55.62;101586.50;5126050;28;20020;-68
2022/08/30 06:11:57;;;;;;;1.77;1.67;;;;;;;20.46;55.24;101575.84;5125837;28;20027;-68
2022/08/30 06:14:23;;;;;;;0.20;0.20;;;;;;;20.73;53.46;101577.63;5126023;28;20028;-68
2022/08/30 06:16:50;;;;;;;0.20;0.20;;;;;;;20.62;52.61;101570.94;5125953;28;20033;-68
2022/08/30 06:19:15;;;;;;;0.20;0.20;;;;;;;20.67;52.95;101578.72;5126043;28;20026;-68
2022/08/30 06:21:42;;;;;;;0.20;0.20;;;;;;;20.84;53.29;101585.19;5125771;28;20055;-68
2022/08/30 06:24:09;;;;;;;0.20;0.20;;;;;;;21.02;51.58;101589.03;5125432;28;20041;-69
2022/08/30 06:26:40;;;;;;;0.20;0.20;;;;;;;21.00;51.95;101583.81;5125875;28;20028;-68
2022/08/30 06:29:05;;;;;;;0.35;0.35;;;;;;;21.30;51.88;101588.94;5125757;28;20068;-68
2022/08/30 06:31:31;;;;;;;0.20;0.20;;;;;;;;;;5125543;28;20047;-68
2022/08/30 06:33:56;;;;;;;0.20;0.20;;;;;;;21.76;52.16;101589.97;5125727;28;20382;-68
2022/08/30 06:36:23;;;;;;;0.30;0.30;;;;;;;21.74;50.28;101595.31;5125628;28;20028;-68
2022/08/30 06:38:51;;;;;;;0.20;0.20;;;;;;;21.67;48.92;101596.47;5125396;28;20043;-68
2022/08/30 06:41:19;;;;;;;0.50;0.50;;;;;;;21.54;48.98;101596.06;5127357;28;20023;-68
2022/08/30 06:43:45;;;;;;;0.20;0.20;;;;;;;21.44;47.80;101594.66;5129568;28;20083;-68
2022/08/30 06:46:13;;;;;;;0.20;0.20;;;;;;;21.09;48.21;101602.88;5129132;28;20105;-67
2022/08/30 06:48:39;;;;;;;0.20;0.20;;;;;;;21.22;49.75;101595.41;5129382;28;20057;-68
2022/08/30 06:51:04;;;;;;;0.20;0.20;;;;;;;21.41;48.20;101606.19;5129191;28;20024;-68
2022/08/30 06:53:30;;;;;;;0.40;0.40;;;;;;;21.25;49.17;101605.84;5129049;28;20080;-68
2022/08/30 06:55:58;;;;;;;0.20;0.20;;;;;;;21.52;49.60;101604.03;5129090;28;20023;-68
2022/08/30 06:58:24;;;;;;;0.30;0.30;;;;;;;21.81;48.33;101603.03;5110973;28;20390;-69
2022/08/30 07:00:49;;;;;;;0.20;0.20;;;;;;;21.81;47.34;101608.34;5128966;28;20019;-68
2022/08/30 07:03:15;;;;;;;0.20;0.20;;;;;;;21.91;47.68;101615.03;5110729;28;20023;-69
2022/08/30 07:05:40;;;;;;;0.20;0.20;;;;;;;21.63;47.08;101608.09;5129046;28;20467;-68
2022/08/30 07:08:06;;;;;;;0.20;0.20;;;;;;;21.29;46.92;101604.84;5128660;28;20030;-68
2022/08/30 07:10:31;;;;;;;0.30;0.30;;;;;;;21.06;47.87;101611.78;5128846;28;20023;-68
2022/08/30 07:12:56;;;;;;;0.30;0.30;;;;;;;21.17;47.54;101604.34;5129030;28;20080;-68
2022/08/30 07:15:22;;;;;;;0.20;0.20;;;;;;;21.47;47.74;101607.75;5128919;28;20030;-68
2022/08/30 07:20:32;;;;;;;0.20;0.20;;;;;;;22.20;47.25;101602.47;5128739;28;20103;-68
2022/08/30 07:22:58;;;;;;;0.65;0.65;;;;;;;22.40;45.80;101604.34;5128317;28;20027;-68
2022/08/30 07:25:23;;;;;;;0.20;0.20;;;;;;;21.97;45.68;101598.94;5128664;28;20016;-68
2022/08/30 07:27:50;;;;;;;0.15;0.15;;;;;;;21.60;46.54;101603.75;5109266;28;20043;-68
2022/08/30 07:30:17;;;;;;;0.20;0.20;;;;;;;21.60;46.63;101602.91;5127233;28;20019;-68
2022/08/30 07:32:43;;;;;;;0.20;0.20;;;;;;;21.72;47.05;101604.22;5128483;28;20038;-68
2022/08/30 07:35:08;;;;;;;0.20;0.20;;;;;;;21.90;46.80;101602.72;5128564;28;20020;-68
2022/08/30 07:37:34;;;;;;;0.20;0.20;;;;;;;21.91;46.05;101607.09;5128420;28;20490;-68
2022/08/30 07:39:59;;;;;;;0.13;0.13;;;;;;;21.73;45.49;101601.53;5128374;28;20023;-68
2022/08/30 07:42:25;;;;;;;0.20;0.20;;;;;;;21.39;45.43;101600.13;5128379;28;20020;-68
2022/08/30 07:44:50;;;;;;;0.20;0.20;;;;;;;21.24;46.24;101605.00;5128184;28;20042;-67
2022/08/30 07:47:15;;;;;;;0.20;0.20;;;;;;;21.33;46.90;101602.94;5128403;28;20022;-68
2022/08/30 07:49:41;;;;;;;0.20;0.20;;;;;;;21.60;46.93;101600.28;5128596;28;20020;-68
2022/08/30 07:52:08;;;;;;;0.20;0.20;;;;;;;21.98;46.30;101595.34;5127808;28;20031;-67
2022/08/30 07:54:33;;;;;;;0.20;0.20;;;;;;;22.22;45.58;101599.78;5128114;28;20016;-68
2022/08/30 07:56:59;;;;;;;0.20;0.20;;;;;;;22.16;46.03;101593.81;5128122;28;20058;-68
2022/08/30 07:59:24;;;;;;;0.20;0.20;;;;;;;22.61;46.19;101599.16;5128266;28;20016;-69
2022/08/30 08:01:49;;;;;;;0.20;0.20;;;;;;;22.94;45.42;101610.19;5127877;28;20019;-69
2022/08/30 08:04:15;;;;;;;0.20;0.20;;;;;;;22.80;44.91;101600.16;5127780;28;20459;-68
2022/08/30 08:06:41;;;;;;;0.20;0.20;;;;;;;22.80;44.46;101602.81;5128016;28;20020;-68
2022/08/30 08:09:07;;;;;;;0.20;0.20;;;;;;;22.66;44.20;101606.91;5127733;28;20024;-68
2022/08/30 08:11:33;;;;;;;0.20;0.20;;;;;;;22.78;45.03;101608.16;5127610;28;20015;-68
2022/08/30 08:13:59;;;;;;;0.20;0.20;;;;;;;22.97;43.75;101608.25;5127907;28;20019;-68
2022/08/30 08:16:26;;;;;;;0.20;0.20;;;;;;;22.73;43.36;101618.94;5127668;28;20030;-69
2022/08/30 08:18:53;;;;;;;0.20;0.20;;;;;;;22.42;43.50;101609.56;5127673;28;20030;-68
2022/08/30 08:21:21;;;;;;;0.20;0.20;;;;;;;22.13;43.54;101609.78;5127332;28;20050;-68
2022/08/30 08:23:46;;;;;;;0.20;0.20;;;;;;;21.98;43.96;101621.78;5127071;28;20051;-68
2022/08/30 08:26:12;;;;;;;0.20;0.20;;;;;;;21.69;44.38;101614.91;5127510;28;20020;-69
2022/08/30 08:28:38;;;;;;;0.20;0.20;;;;;;;21.97;43.99;101609.50;5109173;28;20031;-68
2022/08/30 08:31:17;;;;;;;0.20;0.20;;;;;;;22.10;43.19;101611.69;5127315;28;20030;-68
2022/08/30 08:33:43;;;;;;;0.20;0.20;;;;;;;22.00;43.24;101619.97;5127456;28;20027;-68
2022/08/30 08:36:08;;;;;;;0.20;0.20;;;;;;;22.04;42.83;101612.78;5127145;28;20020;-69
2022/08/30 08:38:34;;;;;;;0.20;0.20;;;;;;;22.11;42.34;101610.78;5127144;28;20024;-69
2022/08/30 08:41:33;;;;;;;1.85;1.48;;;;;;;22.19;42.85;101610.47;5108889;28;20110;-68
2022/08/30 08:43:59;;;;;;;0.20;0.20;;;;;;;22.78;41.64;101616.97;5122784;28;20031;-68
2022/08/30 08:46:43;;;;;;;0.20;0.20;;;;;;;22.40;41.31;101616.69;5127164;28;20054;-68
2022/08/30 08:49:08;;;;;;;0.20;0.20;;;;;;;22.47;42.29;101604.09;5127271;28;20119;-69
2022/08/30 08:54:44;;;;;;;0.20;0.20;;;;;;;23.48;40.53;101609.72;5126802;28;20034;-67
2022/08/30 08:57:09;;;;;;;0.20;0.20;;;;;;;24.25;39.52;101610.66;5126870;28;20031;-66
2022/08/30 08:59:36;;;;;;;0.20;0.20;;;;;;;24.35;38.39;101605.78;5126861;28;20024;-67
2022/08/30 09:02:19;;;;;;;0.20;0.20;;;;;;;23.71;38.75;101613.97;5126737;28;20027;-67
2022/08/30 09:04:45;;;;;;;0.20;0.20;;;;;;;22.95;39.24;101623.38;5107775;28;20065;-67
2022/08/30 09:07:21;;;;;;;0.20;0.20;;;;;;;22.26;40.50;101610.19;5126710;28;20402;-67
2022/08/30 09:09:46;;;;;;;0.20;0.20;;;;;;;21.95;41.38;101621.91;5126933;28;20106;-67
2022/08/30 09:12:12;;;;;;;0.20;0.20;;;;;;;22.24;41.00;101612.00;5126757;28;20383;-67
2022/08/30 09:14:45;;;;;;;0.20;0.20;;;;;;;23.04;40.26;101611.53;5126870;28;20020;-67
2022/08/30 09:17:15;;;;;;;0.20;0.20;;;;;;;22.99;39.70;101614.38;5126846;28;20106;-69
2022/08/30 09:19:55;;;;;;;0.20;0.20;;;;;;;22.57;40.73;101620.47;5126664;28;20027;-68
2022/08/30 09:22:36;;;;;;;0.20;0.20;;;;;;;22.48;39.48;101625.19;5126152;28;20032;-69
2022/08/30 09:25:21;;;;;;;0.20;0.20;;;;;;;22.54;39.15;101624.94;5126632;28;20112;-68
2022/08/30 09:27:48;;;;;;;0.20;0.20;;;;;;;23.41;38.46;101625.00;5126700;28;20044;-69
2022/08/30 09:30:16;;;;;;;0.20;0.20;;;;;;;23.99;36.79;101625.13;5126480;28;20019;-68
2022/08/30 09:32:52;;;;;;;0.20;0.20;;;;;;;23.98;36.13;101616.31;5127096;28;20049;-66
2022/08/30 09:35:47;;;;;;;0.20;0.20;;;;;;;24.14;36.57;101615.59;5127080;28;20049;-70
2022/08/30 09:38:31;;;;;;;0.20;0.20;;;;;;;24.62;35.44;101604.50;5126821;28;20032;-67
2022/08/30 09:41:03;;;;;;;0.20;0.20;;;;;;;24.90;35.84;101600.53;5126676;28;20035;-68
2022/08/30 09:43:32;;;;;;;0.20;0.20;;;;;;;25.05;34.92;101606.84;5127408;28;20032;-69
2022/08/30 09:45:58;;;;;;;0.20;0.20;;;;;;;24.71;34.87;101603.22;5130776;28;20098;-68
2022/08/30 09:48:36;;;;;;;0.20;0.20;;;;;;;25.00;35.78;101601.75;5136357;28;20035;-68
2022/08/30 09:51:19;;;;;;;0.20;0.20;;;;;;;25.88;34.93;101605.22;5127635;28;20019;-68
2022/08/30 09:53:51;;;;;;;0.10;0.10;;;;;;;26.46;33.43;101594.97;5126225;28;20045;-67
2022/08/30 09:57:00;;;;;;;0.20;0.20;;;;;;;26.19;32.56;101595.56;5126344;28;20532;-66
2022/08/30 09:59:36;;;;;;;0.20;0.20;;;;;;;25.85;33.76;101600.09;5107958;28;20478;-67
2022/08/30 10:02:20;;;;;;;0.10;0.10;;;;;;;26.91;34.33;101599.50;5107754;28;20051;-66
2022/08/30 10:04:57;;;;;;;0.10;0.10;;;;;;;27.51;32.21;101604.03;5126255;28;20031;-67
2022/08/30 10:07:33;;;;;;;0.10;0.10;;;;;;;27.40;30.76;101602.84;5125953;28;20054;-66
2022/08/30 10:10:04;;;;;;;0.10;0.10;;;;;;;27.05;31.19;101600.50;5126184;28;20024;-67
2022/08/30 10:12:41;;;;;;;0.10;0.10;;;;;;;26.86;31.16;101593.59;5126017;28;20165;-67
2022/08/30 10:15:24;;;;;;;0.10;0.10;;;;;;;26.36;30.85;101610.59;5109416;28;20608;-67
2022/08/30 10:18:07;;;;;;;0.10;0.10;;;;;;;25.47;32.20;101593.19;5130212;28;20055;-66
2022/08/30 10:20:42;;;;;;;0.10;0.10;;;;;;;24.65;32.28;101576.97;5129813;28;20047;-66
2022/08/30 10:23:21;;;;;;;0.20;0.20;;;;;;;24.17;32.61;101601.38;5129974;28;20035;-66
2022/08/30 10:25:50;;;;;;;0.63;0.60;;;;;;;24.35;33.05;101600.47;5130012;28;20027;-66
2022/08/30 10:28:28;;;;;;;0.20;0.20;;;;;;;25.01;32.50;101594.66;5129832;28;20448;-67
2022/08/30 10:31:03;;;;;;;0.10;0.10;;;;;;;25.32;31.71;101605.53;5129735;28;20026;-66
2022/08/30 10:33:37;;;;;;;0.20;0.20;;;;;;;25.29;30.98;101595.06;5129833;28;20366;-66
2022/08/30 10:36:08;;;;;;;0.15;0.15;;;;;;;25.16;31.65;101595.66;5129815;28;20019;-67
2022/08/30 10:38:36;;;;;;;0.20;0.20;;;;;;;25.41;31.32;101604.16;5129559;28;20034;-67
2022/08/30 10:41:24;;;;;;;0.20;0.20;;;;;;;25.25;31.18;101578.41;5129712;28;20079;-66
2022/08/30 10:44:07;;;;;;;0.20;0.20;;;;;;;25.19;31.75;101594.66;5129645;28;20027;-67
2022/08/30 10:47:01;;;;;;;0.10;0.10;;;;;;;25.22;31.43;101591.84;5129595;28;20394;-67
2022/08/30 10:49:31;;;;;;;0.20;0.20;;;;;;;24.87;31.37;101601.50;5129717;28;20023;-68
2022/08/30 10:52:06;;;;;;;0.20;0.20;;;;;;;24.51;32.87;101595.28;5129178;28;20024;-67
2022/08/30 10:54:46;;;;;;;0.20;0.20;;;;;;;25.14;32.07;101605.53;5129198;28;20036;-68
2022/08/30 10:57:11;;;;;;;0.20;0.20;;;;;;;25.13;31.62;101593.16;5129279;28;20027;-68
2022/08/30 10:59:44;;;;;;;0.60;0.60;;;;;;;25.16;32.26;101595.66;5129299;28;20031;-69
2022/08/30 11:02:28;;;;;;;0.20;0.20;;;;;;;25.35;32.08;101592.91;5129110;28;20024;-69
2022/08/30 11:05:19;;;;;;;0.20;0.20;;;;;;;24.48;30.91;101594.56;5129263;28;20360;-68
2022/08/30 11:07:56;;;;;;;0.20;0.20;;;;;;;23.76;32.82;101608.47;5128938;28;20034;-69
2022/08/30 11:10:38;;;;;;;0.20;0.20;;;;;;;24.28;32.39;101593.75;5129152;28;20016;-69
2022/08/30 11:13:09;;;;;;;0.20;0.20;;;;;;;24.87;31.99;101598.00;5129160;28;20039;-68
2022/08/30 11:15:51;;;;;;;0.20;0.20;;;;;;;25.34;30.39;101590.31;5129060;28;20102;-65
2022/08/30 11:18:17;;;;;;;0.20;0.20;;;;;;;25.08;30.15;101580.13;5128918;28;20035;-68
2022/08/30 11:20:49;;;;;;;0.20;0.20;;;;;;;24.78;29.89;101579.88;5128714;28;20024;-68
2022/08/30 11:23:24;;;;;;;0.20;0.20;;;;;;;24.44;30.27;101572.63;5128432;28;20028;-68
2022/08/30 11:26:08;;;;;;;0.20;0.20;;;;;;;23.80;30.43;101601.25;5128468;28;20027;-68
2022/08/30 11:28:33;;;;;;;0.20;0.20;;;;;;;22.47;32.41;101593.50;5127298;28;20055;-67
2022/08/30 11:31:10;;;;;;;0.20;0.20;;;;;;;21.44;33.74;101577.00;5127430;28;20028;-66
2022/08/30 11:33:41;;;;;;;0.20;0.20;;;;;;;20.64;35.04;101598.13;5128563;28;20045;-67
2022/08/30 11:36:09;;;;;;;0.22;0.22;;;;;;;20.16;36.20;101592.53;5128545;28;20087;-68
2022/08/30 11:38:34;;;;;;;0.20;0.20;;;;;;;19.89;36.61;101581.88;5128154;28;20042;-68
2022/08/30 11:41:13;;;;;;;0.20;0.20;;;;;;;19.76;37.51;101580.53;5128311;28;20051;-68
2022/08/30 11:43:41;;;;;;;0.20;0.20;;;;;;;19.57;37.89;101592.41;5128548;28;20023;-67